sensor_id;sensor_type;location;lat;lon;timestamp;pressure;altitude;pressure_sealevel;temperature;humidity
71457;BME280;59263;48.160;11.752;2023-08-01T00:00:08;95114.63;;;18.21;100.00
71457;BME280;59263;48.160;11.752;2023-08-01T00:02:34;95107.34;;;18.23;100.00
71457;BME280;59263;48.160;11.752;2023-08-01T00:04:59;95104.50;;;18.24;100.00
71457;BME280;59263;48.160;11.752;2023-08-01T00:07:27;95098.69;;;18.16;100.00
71457;BME280;59263;48.160;11.752;2023-08-01T00:09:52;95100.13;;;18.11;100.00
71457;BME280;59263;48.160;11.752;2023-08-01T00:12:17;95092.50;;;18.10;100.00
71457;BME280;59263;48.160;11.752;2023-08-01T00:14:43;95088.88;;;18.04;100.00
71457;BME280;59263;48.160;11.752;2023-08-01T00:17:08;95080.59;;;18.07;100.00
71457;BME280;59263;48.160;11.752;2023-08-01T00:19:33;95062.13;;;18.02;100.00
71457;BME280;59263;48.160;11.752;2023-08-01T00:21:59;95056.63;;;18.10;100.00
71457;BME280;59263;48.160;11.752;2023-08-01T00:24:24;95057.81;;;18.14;100.00
71457;BME280;59263;48.160;11.752;2023-08-01T00:26:49;95057.41;;;18.18;100.00
71457;BME280;59263;48.160;11.752;2023-08-01T00:29:15;95046.56;;;18.14;100.00
71457;BME280;59263;48.160;11.752;2023-08-01T00:31:40;95046.16;;;18.10;100.00
71457;BME280;59263;48.160;11.752;2023-08-01T00:34:05;95048.78;;;18.10;100.00
71457;BME280;59263;48.160;11.752;2023-08-01T00:36:30;95038.88;;;18.12;100.00
71457;BME280;59263;48.160;11.752;2023-08-01T00:38:56;95031.44;;;18.09;100.00
71457;BME280;59263;48.160;11.752;2023-08-01T00:41:21;95033.66;;;18.12;100.00
71457;BME280;59263;48.160;11.752;2023-08-01T00:43:46;95022.75;;;18.16;100.00
71457;BME280;59263;48.160;11.752;2023-08-01T00:46:12;95027.59;;;18.19;100.00
71457;BME280;59263;48.160;11.752;2023-08-01T00:48:37;95013.47;;;18.20;100.00
71457;BME280;59263;48.160;11.752;2023-08-01T00:51:05;95012.91;;;18.18;100.00
71457;BME280;59263;48.160;11.752;2023-08-01T00:53:31;95003.59;;;18.22;100.00
71457;BME280;59263;48.160;11.752;2023-08-01T00:55:58;95000.31;;;18.33;100.00
71457;BME280;59263;48.160;11.752;2023-08-01T00:58:24;94991.44;;;18.34;100.00
71457;BME280;59263;48.160;11.752;2023-08-01T01:00:49;94981.97;;;18.33;100.00
71457;BME280;59263;48.160;11.752;2023-08-01T01:03:15;94978.72;;;18.37;100.00
71457;BME280;59263;48.160;11.752;2023-08-01T01:05:48;94981.09;;;18.39;100.00
71457;BME280;59263;48.160;11.752;2023-08-01T01:08:14;94979.09;;;18.41;100.00
71457;BME280;59263;48.160;11.752;2023-08-01T01:10:39;94975.03;;;18.45;100.00
71457;BME280;59263;48.160;11.752;2023-08-01T01:13:05;94976.22;;;18.49;100.00
71457;BME280;59263;48.160;11.752;2023-08-01T01:15:30;94970.59;;;18.46;100.00
71457;BME280;59263;48.160;11.752;2023-08-01T01:17:55;94964.59;;;18.38;100.00
71457;BME280;59263;48.160;11.752;2023-08-01T01:20:24;94965.38;;;18.39;100.00
71457;BME280;59263;48.160;11.752;2023-08-01T01:22:53;94955.78;;;18.33;100.00
71457;BME280;59263;48.160;11.752;2023-08-01T01:25:20;94954.91;;;18.39;100.00
71457;BME280;59263;48.160;11.752;2023-08-01T01:27:48;94952.91;;;18.41;100.00
71457;BME280;59263;48.160;11.752;2023-08-01T01:30:15;94938.19;;;18.40;100.00
71457;BME280;59263;48.160;11.752;2023-08-01T01:32:40;94943.59;;;18.45;100.00
71457;BME280;59263;48.160;11.752;2023-08-01T01:35:06;94935.59;;;18.40;100.00
71457;BME280;59263;48.160;11.752;2023-08-01T01:37:32;94938.78;;;18.42;100.00
71457;BME280;59263;48.160;11.752;2023-08-01T01:39:57;94939.81;;;18.41;100.00
71457;BME280;59263;48.160;11.752;2023-08-01T01:42:22;94934.41;;;18.36;100.00
71457;BME280;59263;48.160;11.752;2023-08-01T01:44:48;94941.19;;;18.44;100.00
71457;BME280;59263;48.160;11.752;2023-08-01T01:47:13;94939.91;;;18.53;100.00
71457;BME280;59263;48.160;11.752;2023-08-01T01:49:38;94931.84;;;18.54;100.00
71457;BME280;59263;48.160;11.752;2023-08-01T01:52:04;94933.88;;;18.52;100.00
71457;BME280;59263;48.160;11.752;2023-08-01T01:54:29;94930.22;;;18.53;100.00
71457;BME280;59263;48.160;11.752;2023-08-01T01:56:55;94921.38;;;18.54;100.00
71457;BME280;59263;48.160;11.752;2023-08-01T01:59:20;94915.03;;;18.62;100.00
71457;BME280;59263;48.160;11.752;2023-08-01T02:01:45;94928.94;;;18.62;100.00
71457;BME280;59263;48.160;11.752;2023-08-01T02:04:11;94913.22;;;18.62;100.00
71457;BME280;59263;48.160;11.752;2023-08-01T02:06:36;94923.72;;;18.62;100.00
71457;BME280;59263;48.160;11.752;2023-08-01T02:09:01;94918.88;;;18.59;100.00
71457;BME280;59263;48.160;11.752;2023-08-01T02:11:27;94910.66;;;18.56;100.00
71457;BME280;59263;48.160;11.752;2023-08-01T02:13:52;94900.97;;;18.56;100.00
71457;BME280;59263;48.160;11.752;2023-08-01T02:16:19;94893.63;;;18.47;100.00
71457;BME280;59263;48.160;11.752;2023-08-01T02:18:44;94883.50;;;18.50;100.00
71457;BME280;59263;48.160;11.752;2023-08-01T02:21:09;94892.53;;;18.54;100.00
71457;BME280;59263;48.160;11.752;2023-08-01T02:23:35;94883.50;;;18.50;100.00
71457;BME280;59263;48.160;11.752;2023-08-01T02:26:02;94887.94;;;18.50;100.00
71457;BME280;59263;48.160;11.752;2023-08-01T02:28:27;94878.69;;;18.47;100.00
71457;BME280;59263;48.160;11.752;2023-08-01T02:30:53;94870.66;;;18.42;100.00
71457;BME280;59263;48.160;11.752;2023-08-01T02:33:18;94862.06;;;18.35;100.00
71457;BME280;59263;48.160;11.752;2023-08-01T02:35:43;94861.06;;;18.36;100.00
71457;BME280;59263;48.160;11.752;2023-08-01T02:38:08;94851.75;;;18.40;100.00
71457;BME280;59263;48.160;11.752;2023-08-01T02:40:34;94863.97;;;18.46;100.00
71457;BME280;59263;48.160;11.752;2023-08-01T02:42:59;94859.34;;;18.48;100.00
71457;BME280;59263;48.160;11.752;2023-08-01T02:45:24;94846.47;;;18.47;100.00
71457;BME280;59263;48.160;11.752;2023-08-01T02:47:50;94855.25;;;18.52;100.00
71457;BME280;59263;48.160;11.752;2023-08-01T02:50:15;94860.66;;;18.57;100.00
71457;BME280;59263;48.160;11.752;2023-08-01T02:52:40;94868.69;;;18.62;100.00
71457;BME280;59263;48.160;11.752;2023-08-01T02:55:06;94855.41;;;18.57;100.00
71457;BME280;59263;48.160;11.752;2023-08-01T02:57:32;94857.47;;;18.55;100.00
71457;BME280;59263;48.160;11.752;2023-08-01T02:59:57;94861.66;;;18.56;100.00
71457;BME280;59263;48.160;11.752;2023-08-01T03:02:22;94852.50;;;18.47;100.00
71457;BME280;59263;48.160;11.752;2023-08-01T03:04:47;94860.88;;;18.56;100.00
71457;BME280;59263;48.160;11.752;2023-08-01T03:07:13;94873.38;;;18.54;100.00
71457;BME280;59263;48.160;11.752;2023-08-01T03:13:00;94871.41;;;18.49;100.00
71457;BME280;59263;48.160;11.752;2023-08-01T03:15:26;94878.69;;;18.47;100.00
71457;BME280;59263;48.160;11.752;2023-08-01T03:17:51;94877.53;;;18.43;100.00
71457;BME280;59263;48.160;11.752;2023-08-01T03:20:17;94882.53;;;18.45;100.00
71457;BME280;59263;48.160;11.752;2023-08-01T03:22:42;94888.00;;;18.43;100.00
71457;BME280;59263;48.160;11.752;2023-08-01T03:25:08;94875.06;;;18.48;100.00
71457;BME280;59263;48.160;11.752;2023-08-01T03:27:34;94869.06;;;18.41;100.00
71457;BME280;59263;48.160;11.752;2023-08-01T03:29:59;94870.66;;;18.42;100.00
71457;BME280;59263;48.160;11.752;2023-08-01T03:32:25;94871.84;;;18.46;100.00
71457;BME280;59263;48.160;11.752;2023-08-01T03:34:50;94865.38;;;18.49;100.00
71457;BME280;59263;48.160;11.752;2023-08-01T03:37:16;94884.47;;;18.56;100.00
71457;BME280;59263;48.160;11.752;2023-08-01T03:39:41;94885.09;;;18.51;100.00
71457;BME280;59263;48.160;11.752;2023-08-01T03:42:06;94885.91;;;18.52;100.00
71457;BME280;59263;48.160;11.752;2023-08-01T03:44:33;94887.41;;;18.66;100.00
71457;BME280;59263;48.160;11.752;2023-08-01T03:46:58;94880.91;;;18.69;100.00
71457;BME280;59263;48.160;11.752;2023-08-01T03:49:23;94883.72;;;18.74;100.00
71457;BME280;59263;48.160;11.752;2023-08-01T03:51:48;94888.81;;;18.87;100.00
71457;BME280;59263;48.160;11.752;2023-08-01T03:54:14;94885.69;;;18.78;100.00
71457;BME280;59263;48.160;11.752;2023-08-01T03:56:39;94889.41;;;18.89;100.00
71457;BME280;59263;48.160;11.752;2023-08-01T03:59:08;94879.69;;;18.71;100.00
71457;BME280;59263;48.160;11.752;2023-08-01T04:01:33;94896.81;;;18.74;100.00
71457;BME280;59263;48.160;11.752;2023-08-01T04:03:58;94897.25;;;18.71;100.00
71457;BME280;59263;48.160;11.752;2023-08-01T04:06:24;94916.00;;;18.68;100.00
71457;BME280;59263;48.160;11.752;2023-08-01T04:08:49;94906.00;;;18.58;100.00
71457;BME280;59263;48.160;11.752;2023-08-01T04:11:15;94918.16;;;18.52;100.00
71457;BME280;59263;48.160;11.752;2023-08-01T04:13:40;94933.97;;;18.39;100.00
71457;BME280;59263;48.160;11.752;2023-08-01T04:16:05;94938.13;;;18.22;100.00
71457;BME280;59263;48.160;11.752;2023-08-01T04:18:31;94939.22;;;18.07;100.00
71457;BME280;59263;48.160;11.752;2023-08-01T04:20:56;94942.69;;;18.01;100.00
71457;BME280;59263;48.160;11.752;2023-08-01T04:23:21;94944.38;;;17.89;100.00
71457;BME280;59263;48.160;11.752;2023-08-01T04:25:47;94954.69;;;17.84;100.00
71457;BME280;59263;48.160;11.752;2023-08-01T04:28:12;94973.00;;;17.71;100.00
71457;BME280;59263;48.160;11.752;2023-08-01T04:30:37;94963.06;;;17.41;100.00
71457;BME280;59263;48.160;11.752;2023-08-01T04:33:04;94973.53;;;17.41;100.00
71457;BME280;59263;48.160;11.752;2023-08-01T04:35:29;94977.16;;;17.40;100.00
71457;BME280;59263;48.160;11.752;2023-08-01T04:37:54;94988.44;;;17.34;100.00
71457;BME280;59263;48.160;11.752;2023-08-01T04:40:20;94999.09;;;17.32;100.00
71457;BME280;59263;48.160;11.752;2023-08-01T04:42:45;95002.94;;;17.23;100.00
71457;BME280;59263;48.160;11.752;2023-08-01T04:45:10;95009.75;;;17.24;100.00
71457;BME280;59263;48.160;11.752;2023-08-01T04:47:35;95022.66;;;17.19;100.00
71457;BME280;59263;48.160;11.752;2023-08-01T04:50:01;95014.63;;;17.14;100.00
71457;BME280;59263;48.160;11.752;2023-08-01T04:52:26;95015.66;;;17.06;100.00
71457;BME280;59263;48.160;11.752;2023-08-01T04:54:51;94998.53;;;17.10;100.00
71457;BME280;59263;48.160;11.752;2023-08-01T04:57:17;94994.13;;;16.98;100.00
71457;BME280;59263;48.160;11.752;2023-08-01T04:59:42;95007.81;;;17.00;100.00
71457;BME280;59263;48.160;11.752;2023-08-01T05:02:07;95004.16;;;17.07;100.00
71457;BME280;59263;48.160;11.752;2023-08-01T05:04:32;95010.03;;;17.03;100.00
71457;BME280;59263;48.160;11.752;2023-08-01T05:06:58;95009.00;;;16.97;100.00
71457;BME280;59263;48.160;11.752;2023-08-01T05:09:23;94999.78;;;16.88;100.00
71457;BME280;59263;48.160;11.752;2023-08-01T05:11:48;95017.84;;;16.83;100.00
71457;BME280;59263;48.160;11.752;2023-08-01T05:14:14;95003.78;;;16.77;100.00
71457;BME280;59263;48.160;11.752;2023-08-01T05:16:39;95002.59;;;16.80;100.00
71457;BME280;59263;48.160;11.752;2023-08-01T05:19:04;95008.22;;;16.77;100.00
71457;BME280;59263;48.160;11.752;2023-08-01T05:21:29;94996.53;;;16.73;100.00
71457;BME280;59263;48.160;11.752;2023-08-01T05:23:55;95011.22;;;16.74;100.00
71457;BME280;59263;48.160;11.752;2023-08-01T05:26:20;95003.34;;;16.60;100.00
71457;BME280;59263;48.160;11.752;2023-08-01T05:28:46;94987.88;;;16.52;100.00
71457;BME280;59263;48.160;11.752;2023-08-01T05:31:11;94985.06;;;16.54;100.00
71457;BME280;59263;48.160;11.752;2023-08-01T05:33:36;94979.63;;;16.49;100.00
71457;BME280;59263;48.160;11.752;2023-08-01T05:36:02;94986.06;;;16.59;100.00
71457;BME280;59263;48.160;11.752;2023-08-01T05:38:27;94979.25;;;16.58;100.00
71457;BME280;59263;48.160;11.752;2023-08-01T05:40:52;94981.25;;;16.69;100.00
71457;BME280;59263;48.160;11.752;2023-08-01T05:43:18;94980.47;;;16.76;100.00
71457;BME280;59263;48.160;11.752;2023-08-01T05:45:43;94976.84;;;16.83;100.00
71457;BME280;59263;48.160;11.752;2023-08-01T05:48:08;94987.50;;;16.82;100.00
71457;BME280;59263;48.160;11.752;2023-08-01T05:50:34;94980.88;;;16.86;100.00
71457;BME280;59263;48.160;11.752;2023-08-01T05:52:59;94995.34;;;16.82;100.00
71457;BME280;59263;48.160;11.752;2023-08-01T05:55:24;94990.75;;;16.84;100.00
71457;BME280;59263;48.160;11.752;2023-08-01T05:57:50;94981.28;;;16.83;100.00
71457;BME280;59263;48.160;11.752;2023-08-01T06:00:18;94978.47;;;16.78;100.00
71457;BME280;59263;48.160;11.752;2023-08-01T06:02:45;94985.69;;;16.76;100.00
71457;BME280;59263;48.160;11.752;2023-08-01T06:05:10;94979.09;;;16.80;100.00
71457;BME280;59263;48.160;11.752;2023-08-01T06:07:35;94982.50;;;16.74;100.00
71457;BME280;59263;48.160;11.752;2023-08-01T06:10:01;94986.09;;;16.79;100.00
71457;BME280;59263;48.160;11.752;2023-08-01T06:12:26;94937.66;;;16.63;100.00
71457;BME280;59263;48.160;11.752;2023-08-01T06:14:51;94960.53;;;16.68;100.00
71457;BME280;59263;48.160;11.752;2023-08-01T06:17:17;94974.84;;;16.79;100.00
71457;BME280;59263;48.160;11.752;2023-08-01T06:19:42;94959.78;;;16.81;100.00
71457;BME280;59263;48.160;11.752;2023-08-01T06:22:08;94963.19;;;16.81;100.00
71457;BME280;59263;48.160;11.752;2023-08-01T06:24:33;94945.50;;;16.83;100.00
71457;BME280;59263;48.160;11.752;2023-08-01T06:26:58;94929.44;;;16.80;100.00
71457;BME280;59263;48.160;11.752;2023-08-01T06:29:24;94935.25;;;16.88;100.00
71457;BME280;59263;48.160;11.752;2023-08-01T06:31:50;94931.00;;;16.94;100.00
71457;BME280;59263;48.160;11.752;2023-08-01T06:34:15;94915.31;;;17.01;100.00
71457;BME280;59263;48.160;11.752;2023-08-01T06:36:41;94911.66;;;17.08;100.00
71457;BME280;59263;48.160;11.752;2023-08-01T06:39:06;94896.75;;;17.15;100.00
71457;BME280;59263;48.160;11.752;2023-08-01T06:41:32;94891.53;;;17.15;100.00
71457;BME280;59263;48.160;11.752;2023-08-01T06:43:57;94877.44;;;17.16;100.00
71457;BME280;59263;48.160;11.752;2023-08-01T06:46:23;94865.00;;;17.18;100.00
71457;BME280;59263;48.160;11.752;2023-08-01T06:48:48;94860.94;;;17.23;100.00
71457;BME280;59263;48.160;11.752;2023-08-01T06:51:13;94847.22;;;17.34;100.00
71457;BME280;59263;48.160;11.752;2023-08-01T06:53:39;94834.75;;;17.36;100.00
71457;BME280;59263;48.160;11.752;2023-08-01T06:56:04;94821.06;;;17.34;100.00
71457;BME280;59263;48.160;11.752;2023-08-01T06:58:29;94826.03;;;17.42;100.00
71457;BME280;59263;48.160;11.752;2023-08-01T07:00:54;94814.22;;;17.39;100.00
71457;BME280;59263;48.160;11.752;2023-08-01T07:03:20;94800.53;;;17.37;100.00
71457;BME280;59263;48.160;11.752;2023-08-01T07:05:45;94786.41;;;17.45;100.00
71457;BME280;59263;48.160;11.752;2023-08-01T07:08:10;94784.91;;;17.56;100.00
71457;BME280;59263;48.160;11.752;2023-08-01T07:10:37;94788.13;;;17.58;100.00
71457;BME280;59263;48.160;11.752;2023-08-01T07:13:03;94783.47;;;17.60;100.00
71457;BME280;59263;48.160;11.752;2023-08-01T07:15:30;94783.28;;;17.61;100.00
71457;BME280;59263;48.160;11.752;2023-08-01T07:17:55;94789.69;;;17.65;100.00
71457;BME280;59263;48.160;11.752;2023-08-01T07:20:21;94788.72;;;17.60;100.00
71457;BME280;59263;48.160;11.752;2023-08-01T07:22:46;94779.44;;;17.64;100.00
71457;BME280;59263;48.160;11.752;2023-08-01T07:25:11;94772.97;;;17.66;100.00
71457;BME280;59263;48.160;11.752;2023-08-01T07:27:37;94772.13;;;17.73;100.00
71457;BME280;59263;48.160;11.752;2023-08-01T07:30:04;94765.28;;;17.72;100.00
71457;BME280;59263;48.160;11.752;2023-08-01T07:32:29;94760.66;;;17.74;100.00
71457;BME280;59263;48.160;11.752;2023-08-01T07:34:54;94765.28;;;17.72;100.00
71457;BME280;59263;48.160;11.752;2023-08-01T07:37:20;94758.03;;;17.74;100.00
71457;BME280;59263;48.160;11.752;2023-08-01T07:39:45;94765.88;;;17.74;100.00
71457;BME280;59263;48.160;11.752;2023-08-01T07:42:10;94773.72;;;17.74;100.00
71457;BME280;59263;48.160;11.752;2023-08-01T07:44:36;94799.09;;;17.73;100.00
71457;BME280;59263;48.160;11.752;2023-08-01T07:47:01;94799.09;;;17.73;100.00
71457;BME280;59263;48.160;11.752;2023-08-01T07:49:26;94768.91;;;17.71;100.00
71457;BME280;59263;48.160;11.752;2023-08-01T07:51:52;94749.97;;;17.75;100.00
71457;BME280;59263;48.160;11.752;2023-08-01T07:54:17;94744.69;;;17.82;100.00
71457;BME280;59263;48.160;11.752;2023-08-01T07:56:42;94749.50;;;17.85;100.00
71457;BME280;59263;48.160;11.752;2023-08-01T07:59:08;94761.53;;;17.93;100.00
71457;BME280;59263;48.160;11.752;2023-08-01T08:01:35;94757.03;;;18.00;100.00
71457;BME280;59263;48.160;11.752;2023-08-01T08:04:00;94742.06;;;18.07;100.00
71457;BME280;59263;48.160;11.752;2023-08-01T08:06:26;94748.84;;;18.14;100.00
71457;BME280;59263;48.160;11.752;2023-08-01T08:08:51;94739.28;;;18.02;100.00
71457;BME280;59263;48.160;11.752;2023-08-01T08:11:16;94752.16;;;18.03;100.00
71457;BME280;59263;48.160;11.752;2023-08-01T08:13:42;94768.41;;;17.87;100.00
71457;BME280;59263;48.160;11.752;2023-08-01T08:16:07;94817.88;;;17.95;100.00
71457;BME280;59263;48.160;11.752;2023-08-01T08:18:33;94798.81;;;17.88;100.00
71457;BME280;59263;48.160;11.752;2023-08-01T08:20:58;94781.50;;;17.87;100.00
71457;BME280;59263;48.160;11.752;2023-08-01T08:23:23;94771.06;;;18.05;100.00
71457;BME280;59263;48.160;11.752;2023-08-01T08:25:48;94742.16;;;18.37;100.00
71457;BME280;59263;48.160;11.752;2023-08-01T08:28:16;94729.78;;;18.62;100.00
71457;BME280;59263;48.160;11.752;2023-08-01T08:30:41;94745.53;;;18.81;100.00
71457;BME280;59263;48.160;11.752;2023-08-01T08:33:07;94761.75;;;18.90;100.00
71457;BME280;59263;48.160;11.752;2023-08-01T08:35:35;94782.06;;;18.94;100.00
71457;BME280;59263;48.160;11.752;2023-08-01T08:38:02;94770.09;;;18.98;100.00
71457;BME280;59263;48.160;11.752;2023-08-01T08:40:31;94754.13;;;18.88;100.00
71457;BME280;59263;48.160;11.752;2023-08-01T08:42:59;94777.16;;;18.98;100.00
71457;BME280;59263;48.160;11.752;2023-08-01T08:45:26;94763.97;;;19.04;100.00
71457;BME280;59263;48.160;11.752;2023-08-01T08:47:55;94755.09;;;19.05;100.00
71457;BME280;59263;48.160;11.752;2023-08-01T08:50:26;94757.88;;;19.10;100.00
71457;BME280;59263;48.160;11.752;2023-08-01T08:52:52;94762.91;;;19.24;100.00
71457;BME280;59263;48.160;11.752;2023-08-01T08:55:18;94762.03;;;19.30;100.00
71457;BME280;59263;48.160;11.752;2023-08-01T08:57:49;94761.75;;;19.20;100.00
71457;BME280;59263;48.160;11.752;2023-08-01T09:00:17;94756.00;;;19.29;100.00
71457;BME280;59263;48.160;11.752;2023-08-01T09:02:42;94772.09;;;19.33;100.00
71457;BME280;59263;48.160;11.752;2023-08-01T09:05:07;94767.53;;;19.40;100.00
71457;BME280;59263;48.160;11.752;2023-08-01T09:07:33;94762.66;;;19.44;100.00
71457;BME280;59263;48.160;11.752;2023-08-01T09:10:04;94776.69;;;19.49;100.00
71457;BME280;59263;48.160;11.752;2023-08-01T09:12:33;94772.47;;;19.48;100.00
71457;BME280;59263;48.160;11.752;2023-08-01T09:14:59;94772.59;;;19.53;100.00
71457;BME280;59263;48.160;11.752;2023-08-01T09:17:24;94758.91;;;19.51;100.00
71457;BME280;59263;48.160;11.752;2023-08-01T09:19:55;94767.09;;;19.43;100.00
71457;BME280;59263;48.160;11.752;2023-08-01T09:22:21;94759.22;;;19.43;100.00
71457;BME280;59263;48.160;11.752;2023-08-01T09:24:52;94752.59;;;19.41;100.00
71457;BME280;59263;48.160;11.752;2023-08-01T09:27:17;94738.53;;;19.35;100.00
71457;BME280;59263;48.160;11.752;2023-08-01T09:29:42;94738.81;;;19.45;100.00
71457;BME280;59263;48.160;11.752;2023-08-01T09:32:13;94763.13;;;19.52;100.00
71457;BME280;59263;48.160;11.752;2023-08-01T09:34:39;94763.91;;;19.53;100.00
71457;BME280;59263;48.160;11.752;2023-08-01T09:37:04;94766.03;;;19.63;100.00
71457;BME280;59263;48.160;11.752;2023-08-01T09:39:30;94762.84;;;19.72;100.00
71457;BME280;59263;48.160;11.752;2023-08-01T09:42:00;94777.94;;;19.77;100.00
71457;BME280;59263;48.160;11.752;2023-08-01T09:44:26;94769.28;;;19.76;100.00
71457;BME280;59263;48.160;11.752;2023-08-01T09:47:03;94766.97;;;19.80;100.00
71457;BME280;59263;48.160;11.752;2023-08-01T09:49:30;94764.91;;;19.82;100.00
71457;BME280;59263;48.160;11.752;2023-08-01T09:51:56;94772.34;;;19.85;100.00
71457;BME280;59263;48.160;11.752;2023-08-01T09:54:22;94777.59;;;19.85;100.00
71457;BME280;59263;48.160;11.752;2023-08-01T09:56:49;94771.31;;;19.86;100.00
71457;BME280;59263;48.160;11.752;2023-08-01T09:59:21;94776.31;;;19.76;100.00
71457;BME280;59263;48.160;11.752;2023-08-01T10:01:51;94769.03;;;19.78;100.00
71457;BME280;59263;48.160;11.752;2023-08-01T10:04:37;94750.06;;;19.76;100.00
71457;BME280;59263;48.160;11.752;2023-08-01T10:07:11;94775.53;;;19.75;100.00
71457;BME280;59263;48.160;11.752;2023-08-01T10:09:39;94766.16;;;19.79;100.00
71457;BME280;59263;48.160;11.752;2023-08-01T10:12:06;94758.53;;;19.78;100.00
71457;BME280;59263;48.160;11.752;2023-08-01T10:14:32;94760.47;;;19.71;100.00
71457;BME280;59263;48.160;11.752;2023-08-01T10:16:58;94780.00;;;19.45;100.00
71457;BME280;59263;48.160;11.752;2023-08-01T10:19:24;94791.25;;;19.03;100.00
71457;BME280;59263;48.160;11.752;2023-08-01T10:21:50;94813.97;;;18.91;100.00
71457;BME280;59263;48.160;11.752;2023-08-01T10:24:17;94813.81;;;18.86;100.00
71457;BME280;59263;48.160;11.752;2023-08-01T10:26:44;94815.69;;;18.97;100.00
71457;BME280;59263;48.160;11.752;2023-08-01T10:29:10;94794.91;;;18.84;100.00
71457;BME280;59263;48.160;11.752;2023-08-01T10:31:36;94811.06;;;18.81;100.00
71457;BME280;59263;48.160;11.752;2023-08-01T10:34:06;94812.75;;;18.69;100.00
71457;BME280;59263;48.160;11.752;2023-08-01T10:36:32;94834.31;;;18.52;100.00
71457;BME280;59263;48.160;11.752;2023-08-01T10:38:59;94826.03;;;18.30;100.00
71457;BME280;59263;48.160;11.752;2023-08-01T10:41:29;94825.84;;;18.07;100.00
71457;BME280;59263;48.160;11.752;2023-08-01T10:44:08;94825.00;;;17.88;100.00
71457;BME280;59263;48.160;11.752;2023-08-01T10:46:51;94826.44;;;17.84;100.00
71457;BME280;59263;48.160;11.752;2023-08-01T10:49:17;94827.00;;;17.86;100.00
71457;BME280;59263;48.160;11.752;2023-08-01T10:51:43;94832.47;;;17.84;100.00
71457;BME280;59263;48.160;11.752;2023-08-01T10:54:22;94814.41;;;18.01;100.00
71457;BME280;59263;48.160;11.752;2023-08-01T10:56:52;94832.47;;;17.84;100.00
71457;BME280;59263;48.160;11.752;2023-08-01T10:59:18;94814.34;;;17.83;100.00
71457;BME280;59263;48.160;11.752;2023-08-01T11:01:50;94818.41;;;17.79;100.00
71457;BME280;59263;48.160;11.752;2023-08-01T11:04:21;94818.78;;;17.82;100.00
71457;BME280;59263;48.160;11.752;2023-08-01T11:06:52;94790.22;;;17.81;100.00
71457;BME280;59263;48.160;11.752;2023-08-01T11:09:19;94756.72;;;17.89;100.00
71457;BME280;59263;48.160;11.752;2023-08-01T11:11:46;94766.28;;;18.02;100.00
71457;BME280;59263;48.160;11.752;2023-08-01T11:14:13;94751.75;;;18.06;100.00
71457;BME280;59263;48.160;11.752;2023-08-01T11:16:39;94747.03;;;18.33;100.00
71457;BME280;59263;48.160;11.752;2023-08-01T11:19:05;94735.91;;;18.38;100.00
71457;BME280;59263;48.160;11.752;2023-08-01T11:21:30;94744.78;;;18.37;100.00
71457;BME280;59263;48.160;11.752;2023-08-01T11:23:56;94755.41;;;18.42;100.00
71457;BME280;59263;48.160;11.752;2023-08-01T11:26:21;94766.63;;;18.49;100.00
71457;BME280;59263;48.160;11.752;2023-08-01T11:28:47;94761.38;;;18.49;100.00
71457;BME280;59263;48.160;11.752;2023-08-01T11:31:13;94761.91;;;18.40;100.00
71457;BME280;59263;48.160;11.752;2023-08-01T11:33:38;94786.56;;;18.32;100.00
71457;BME280;59263;48.160;11.752;2023-08-01T11:36:05;94771.84;;;18.31;100.00
71457;BME280;59263;48.160;11.752;2023-08-01T11:38:32;94785.25;;;18.41;100.00
71457;BME280;59263;48.160;11.752;2023-08-01T11:40:59;94786.84;;;18.42;100.00
71457;BME280;59263;48.160;11.752;2023-08-01T11:43:25;94792.50;;;18.39;100.00
71457;BME280;59263;48.160;11.752;2023-08-01T11:45:52;94786.84;;;18.42;100.00
71457;BME280;59263;48.160;11.752;2023-08-01T11:48:20;94789.19;;;18.32;100.00
71457;BME280;59263;48.160;11.752;2023-08-01T11:50:46;94803.44;;;18.36;100.00
71457;BME280;59263;48.160;11.752;2023-08-01T11:53:20;94811.50;;;18.34;100.00
71457;BME280;59263;48.160;11.752;2023-08-01T11:55:47;94805.59;;;18.21;100.00
71457;BME280;59263;48.160;11.752;2023-08-01T11:58:12;94813.28;;;18.16;100.00
71457;BME280;59263;48.160;11.752;2023-08-01T12:00:39;94817.34;;;18.11;100.00
71457;BME280;59263;48.160;11.752;2023-08-01T12:03:09;94804.09;;;18.06;100.00
71457;BME280;59263;48.160;11.752;2023-08-01T12:05:39;94824.72;;;17.96;100.00
71457;BME280;59263;48.160;11.752;2023-08-01T12:08:12;94823.53;;;17.92;100.00
71457;BME280;59263;48.160;11.752;2023-08-01T12:10:43;94822.63;;;18.05;100.00
71457;BME280;59263;48.160;11.752;2023-08-01T12:13:19;94833.47;;;18.08;100.00
71457;BME280;59263;48.160;11.752;2023-08-01T12:15:46;94814.59;;;18.06;100.00
71457;BME280;59263;48.160;11.752;2023-08-01T12:18:19;94812.16;;;18.05;100.00
71457;BME280;59263;48.160;11.752;2023-08-01T12:20:45;94801.63;;;18.11;100.00
71457;BME280;59263;48.160;11.752;2023-08-01T12:23:10;94827.72;;;18.25;100.00
71457;BME280;59263;48.160;11.752;2023-08-01T12:25:35;94832.41;;;18.41;100.00
71457;BME280;59263;48.160;11.752;2023-08-01T12:28:00;94834.38;;;18.64;100.00
71457;BME280;59263;48.160;11.752;2023-08-01T12:30:26;94833.25;;;18.78;100.00
71457;BME280;59263;48.160;11.752;2023-08-01T12:32:51;94827.88;;;18.92;100.00
71457;BME280;59263;48.160;11.752;2023-08-01T12:35:16;94847.91;;;18.86;100.00
71457;BME280;59263;48.160;11.752;2023-08-01T12:37:42;94842.59;;;18.74;100.00